Time;durP1;ratioP1;P1;durP2;ratioP2;P2;SDS_P1;SDS_P2;PMS_P1;PMS_P2;Temp;Humidity;BMP_temperature;BMP_pressure;BME280_temperature;BME280_humidity;BME280_pressure;Samples;Min_cycle;Max_cycle;Signal;HPM_P1;HPM_P2
2022/04/19 00:03:29;;;;;;;7.82;4.30;;;0.50;99.90;;;;;;19807581;29;20047;-53
2022/04/19 00:13:32;;;;;;;7.55;4.65;;;0.50;99.90;;;;;;19806566;29;20117;-50
2022/04/19 00:23:34;;;;;;;9.40;5.07;;;0.40;99.90;;;;;;19806081;29;20575;-51
2022/04/19 00:33:42;;;;;;;8.43;5.07;;;0.40;99.90;;;;;;19805220;29;20039;-50
2022/04/19 00:43:45;;;;;;;10.60;5.72;;;0.40;99.90;;;;;;19831350;29;20100;-50
2022/04/19 00:53:49;;;;;;;8.30;5.50;;;0.40;99.90;;;;;;19803787;29;20403;-53
2022/04/19 01:03:52;;;;;;;8.88;6.05;;;0.50;99.90;;;;;;19814219;29;20098;-50
2022/04/19 01:14:02;;;;;;;9.10;5.65;;;0.50;99.90;;;;;;19802061;29;20450;-53
2022/04/19 01:24:06;;;;;;;11.15;6.75;;;0.50;99.90;;;;;;19825949;29;20095;-51
2022/04/19 01:34:09;;;;;;;10.38;6.00;;;0.40;99.90;;;;;;19875325;29;20042;-51
2022/04/19 01:44:15;;;;;;;9.30;5.97;;;0.30;99.90;;;;;;19817820;29;20495;-53
2022/04/19 01:54:19;;;;;;;10.80;5.53;;;0.30;99.90;;;;;;19799408;29;20100;-51
2022/04/19 02:04:22;;;;;;;10.43;5.97;;;0.20;99.90;;;;;;19799007;29;20519;-51
2022/04/19 02:14:25;;;;;;;9.13;5.70;;;0.10;99.90;;;;;;19826779;29;20078;-53
2022/04/19 02:24:29;;;;;;;10.13;5.55;;;0.10;99.90;;;;;;19865358;29;20100;-49
2022/04/19 02:34:32;;;;;;;12.20;5.70;;;0.00;99.90;;;;;;19858561;29;20074;-52
2022/04/19 02:44:35;;;;;;;8.25;4.63;;;0.00;99.90;;;;;;19800978;29;20433;-52
2022/04/19 02:54:44;;;;;;;9.38;5.50;;;-0.10;99.90;;;;;;19798211;29;20500;-51
2022/04/19 03:04:47;;;;;;;9.90;4.90;;;-0.10;99.90;;;;;;19793838;29;20081;-54
2022/04/19 03:14:50;;;;;;;12.18;4.03;;;-0.20;99.90;;;;;;19846401;29;20077;-51
2022/04/19 03:35:16;;;;;;;6.40;2.63;;;-0.50;99.90;;;;;;19827373;29;20039;-52
2022/04/19 03:45:19;;;;;;;4.93;2.65;;;-0.50;99.90;;;;;;19809487;29;20405;-52
2022/04/19 03:55:26;;;;;;;3.47;1.70;;;-0.50;99.90;;;;;;19807800;29;20094;-51
2022/04/19 04:05:29;;;;;;;4.85;3.05;;;-0.40;99.90;;;;;;19811328;29;20039;-50
2022/04/19 04:15:33;;;;;;;4.95;3.03;;;-0.20;99.90;;;;;;19874813;29;20575;-56
2022/04/19 04:25:37;;;;;;;6.22;3.70;;;-0.10;99.90;;;;;;19813335;29;20043;-52
2022/04/19 04:35:39;;;;;;;4.78;3.03;;;0.10;99.90;;;;;;19864858;29;20103;-55
2022/04/19 04:45:43;;;;;;;5.20;2.83;;;0.40;99.90;;;;;;19839890;29;20375;-52
2022/04/19 04:55:46;;;;;;;4.13;2.30;;;0.40;99.90;;;;;;19803592;29;20494;-49
2022/04/19 05:05:59;;;;;;;5.03;2.28;;;0.60;99.90;;;;;;19801593;29;20047;-50
2022/04/19 05:16:02;;;;;;;3.33;1.75;;;0.80;99.90;;;;;;19813739;29;20038;-50
2022/04/19 05:26:07;;;;;;;4.80;1.77;;;1.00;99.90;;;;;;19838707;29;20499;-50
2022/04/19 05:36:10;;;;;;;3.03;1.75;;;1.40;99.90;;;;;;19804436;29;20108;-50
2022/04/19 05:46:12;;;;;;;2.78;1.77;;;1.70;99.90;;;;;;19800458;29;20031;-53
2022/04/19 05:56:16;;;;;;;3.78;1.73;;;2.00;99.90;;;;;;19823115;29;20059;-51
2022/04/19 06:06:20;;;;;;;2.42;1.20;;;2.50;99.90;;;;;;19835600;29;20047;-52
2022/04/19 06:16:25;;;;;;;3.28;1.63;;;3.00;99.90;;;;;;19799071;29;20039;-54
2022/04/19 06:26:32;;;;;;;3.08;1.80;;;3.70;99.90;;;;;;19795352;29;20043;-53
2022/04/19 06:36:39;;;;;;;1.95;1.00;;;4.40;99.90;;;;;;19835904;29;20402;-54
2022/04/19 06:46:44;;;;;;;1.40;0.88;;;5.00;94.70;;;;;;19842831;29;20051;-53
2022/04/19 06:56:47;;;;;;;1.10;0.80;;;5.50;94.40;;;;;;19813131;29;20086;-58
2022/04/19 07:06:51;;;;;;;2.03;1.23;;;5.70;93.30;;;;;;19834376;29;20131;-58
2022/04/19 07:16:54;;;;;;;1.73;0.98;;;6.10;93.20;;;;;;19885395;29;20078;-54
2022/04/19 07:26:59;;;;;;;1.55;1.15;;;6.60;90.70;;;;;;19825291;29;20077;-53
2022/04/19 07:37:01;;;;;;;2.88;1.05;;;6.90;90.30;;;;;;19818828;29;20039;-52
2022/04/19 07:47:07;;;;;;;1.60;1.00;;;7.30;89.20;;;;;;19881908;29;20043;-55
2022/04/19 07:57:09;;;;;;;1.83;1.10;;;7.70;90.60;;;;;;19807579;29;20136;-53
2022/04/19 08:07:13;;;;;;;1.33;0.80;;;8.10;87.30;;;;;;19864968;29;20095;-54
2022/04/19 08:17:16;;;;;;;3.22;1.23;;;8.30;86.90;;;;;;19835909;29;20047;-54
2022/04/19 08:27:19;;;;;;;1.30;0.90;;;8.60;85.30;;;;;;19878653;29;20047;-59
2022/04/19 08:37:22;;;;;;;1.85;1.17;;;9.00;87.80;;;;;;19844007;29;20066;-55
2022/04/19 08:47:25;;;;;;;1.42;0.85;;;9.50;82.60;;;;;;19833340;29;20108;-53
2022/04/19 08:57:31;;;;;;;1.85;1.10;;;9.80;81.40;;;;;;19856887;29;20437;-55
2022/04/19 09:07:37;;;;;;;0.90;0.73;;;10.10;83.90;;;;;;19876866;29;20072;-55
2022/04/19 09:17:41;;;;;;;1.98;1.10;;;10.60;77.00;;;;;;19876541;29;20038;-56
2022/04/19 09:27:45;;;;;;;1.77;0.90;;;10.90;82.00;;;;;;19825358;29;20491;-55
2022/04/19 09:37:48;;;;;;;2.17;1.25;;;11.30;81.30;;;;;;19800756;29;20104;-60
2022/04/19 09:47:58;;;;;;;1.58;0.80;;;11.40;82.90;;;;;;21168780;27;20359;-61
2022/04/19 09:58:02;;;;;;;2.22;1.30;;;11.80;80.30;;;;;;21133128;28;20058;-56
2022/04/19 10:08:21;;;;;;;1.88;1.23;;;12.00;79.10;;;;;;21132356;28;20036;-61
2022/04/19 10:18:25;;;;;;;4.95;1.30;;;12.70;82.60;;;;;;21131928;28;20043;-56
2022/04/19 10:28:30;;;;;;;3.55;1.27;;;13.00;78.90;;;;;;21130875;28;20066;-56
2022/04/19 10:38:33;;;;;;;2.33;1.40;;;13.00;78.20;;;;;;21129870;28;20048;-55
2022/04/19 10:48:35;;;;;;;2.97;1.40;;;13.00;79.20;;;;;;21129268;28;20036;-60
2022/04/19 10:58:44;;;;;;;6.88;1.45;;;13.20;76.20;;;;;;21075994;28;20040;-57
2022/04/19 11:08:49;;;;;;;2.37;1.70;;;13.30;79.10;;;;;;21071675;28;20505;-56
2022/04/19 11:18:57;;;;;;;2.40;1.67;;;14.30;78.80;;;;;;21072252;28;20112;-57
2022/04/19 11:29:10;;;;;;;3.15;1.70;;;14.60;75.40;;;;;;21071329;28;20510;-55
2022/04/19 11:46:44;;;;;;;3.40;2.25;;;14.10;77.20;;;;;;21069073;28;20048;-60
2022/04/19 11:49:43;;;;;;;3.40;2.72;;;14.20;81.10;;;;;;21068930;28;20085;-56
2022/04/19 11:59:52;;;;;;;4.53;2.63;;;15.10;73.60;;;;;;21067252;28;20511;-61
2022/04/19 12:09:58;;;;;;;3.83;2.53;;;15.80;77.90;;;;;;21065847;28;20505;-60
2022/04/19 12:20:03;;;;;;;3.42;2.83;;;15.80;73.70;;;;;;21066257;28;20086;-62
2022/04/19 12:30:12;;;;;;;3.08;2.30;;;16.10;80.00;;;;;;21065118;28;20401;-62
2022/04/19 12:40:15;;;;;;;2.95;2.25;;;17.50;75.60;;;;;;21063854;28;20101;-62
2022/04/19 12:50:21;;;;;;;2.60;2.15;;;17.10;72.20;;;;;;21063257;28;20036;-61
2022/04/19 13:00:24;;;;;;;3.90;2.00;;;16.90;72.10;;;;;;21063197;28;20082;-63
2022/04/19 13:20:48;;;;;;;2.95;2.40;;;17.50;69.10;;;;;;21060883;28;20040;-61
2022/04/19 13:30:53;;;;;;;7.65;3.00;;;17.10;71.80;;;;;;21060947;28;20039;-58
2022/04/19 13:40:55;;;;;;;7.43;3.70;;;16.50;72.80;;;;;;21055977;28;20060;-61
2022/04/19 13:50:58;;;;;;;4.97;3.63;;;16.20;71.20;;;;;;21060340;28;20089;-57
2022/04/19 14:01:02;;;;;;;7.03;4.32;;;16.10;72.80;;;;;;21194115;28;20182;-61
2022/04/19 14:11:05;;;;;;;7.07;4.43;;;15.90;73.20;;;;;;21211084;28;20035;-58
2022/04/19 14:21:09;;;;;;;5.05;4.18;;;15.30;75.60;;;;;;21207392;28;20085;-59
2022/04/19 14:41:34;;;;;;;7.57;5.65;;;15.30;74.20;;;;;;21220997;27;20672;-61
2022/04/19 15:02:00;;;;;;;20.85;5.85;;;15.00;75.50;;;;;;21207102;27;20092;-60
2022/04/19 15:12:04;;;;;;;7.05;5.53;;;14.50;73.60;;;;;;21206754;27;20030;-60
2022/04/19 15:22:06;;;;;;;8.25;5.47;;;13.60;74.20;;;;;;21222659;27;20085;-59
2022/04/19 15:32:11;;;;;;;7.78;5.85;;;12.80;76.70;;;;;;21221791;27;20043;-55
2022/04/19 15:42:13;;;;;;;8.70;5.78;;;12.30;77.00;;;;;;21220653;27;20104;-59
2022/04/19 15:52:16;;;;;;;8.45;5.10;;;11.90;79.10;;;;;;21216652;27;20039;-54
2022/04/19 16:02:21;;;;;;;7.10;5.43;;;11.60;80.20;;;;;;21219621;27;20039;-59
2022/04/19 16:12:24;;;;;;;8.38;5.72;;;11.50;79.50;;;;;;21167817;27;20028;-59
2022/04/19 16:32:48;;;;;;;10.55;6.00;;;9.60;84.10;;;;;;21216598;27;20043;-54
2022/04/19 16:42:51;;;;;;;10.80;6.70;;;9.00;86.90;;;;;;21195757;27;20050;-52
2022/04/19 16:52:54;;;;;;;10.52;6.53;;;8.60;86.90;;;;;;21215264;27;20035;-58
2022/04/19 17:13:18;;;;;;;9.25;5.95;;;8.20;89.60;;;;;;21112871;28;20044;-54
2022/04/19 17:23:21;;;;;;;13.65;7.38;;;8.00;90.20;;;;;;21168245;27;20027;-53
2022/04/19 17:33:25;;;;;;;12.93;7.32;;;7.80;91.00;;;;;;21210749;27;20056;-53
2022/04/19 17:43:28;;;;;;;13.73;7.18;;;7.30;91.60;;;;;;21211808;27;20500;-57
2022/04/19 18:03:54;;;;;;;11.98;7.18;;;6.40;93.40;;;;;;21218499;27;20035;-57
2022/04/19 18:13:57;;;;;;;12.52;7.07;;;6.00;93.60;;;;;;21228401;27;20035;-57
2022/04/19 18:34:21;;;;;;;11.75;7.38;;;5.80;94.80;;;;;;21226724;27;20039;-56
2022/04/19 18:44:25;;;;;;;14.38;8.30;;;5.60;95.10;;;;;;21225255;27;20088;-54
2022/04/19 18:54:27;;;;;;;15.57;9.60;;;5.80;94.70;;;;;;21226163;27;20035;-56
2022/04/19 19:04:30;;;;;;;15.65;7.95;;;6.40;94.00;;;;;;21225342;27;20092;-54
2022/04/19 19:14:33;;;;;;;19.27;12.45;;;6.90;93.00;;;;;;21224449;27;20035;-56
2022/04/19 19:24:36;;;;;;;18.95;12.32;;;7.40;92.60;;;;;;21222651;27;20092;-55
2022/04/19 19:34:39;;;;;;;22.45;10.45;;;7.90;92.50;;;;;;21222513;27;20332;-51
2022/04/19 19:44:43;;;;;;;18.40;11.32;;;8.10;93.00;;;;;;21221035;27;20108;-52
2022/04/19 19:54:47;;;;;;;18.88;12.63;;;8.20;92.30;;;;;;21220418;27;20484;-57
2022/04/19 20:04:50;;;;;;;18.92;10.52;;;8.20;92.60;;;;;;21219624;27;20060;-53
2022/04/19 20:14:57;;;;;;;12.77;7.93;;;8.40;92.50;;;;;;21218829;27;20170;-51
2022/04/19 20:25:01;;;;;;;18.05;11.15;;;7.80;92.30;;;;;;21216913;27;20104;-53
2022/04/19 20:35:04;;;;;;;15.23;8.60;;;7.30;94.40;;;;;;21200364;27;20491;-54
2022/04/19 20:45:09;;;;;;;20.50;12.82;;;7.60;93.80;;;;;;21216080;27;20352;-57
2022/04/19 20:55:13;;;;;;;12.63;7.25;;;7.50;95.30;;;;;;21215407;27;20043;-52
2022/04/19 21:05:16;;;;;;;17.08;8.80;;;6.80;94.40;;;;;;21215055;27;20114;-56
2022/04/19 21:15:19;;;;;;;13.48;9.23;;;6.00;96.10;;;;;;21214209;27;20035;-56
2022/04/19 21:25:22;;;;;;;13.80;8.50;;;5.60;97.50;;;;;;21213578;27;20484;-54
2022/04/19 21:35:24;;;;;;;15.73;8.20;;;5.60;99.10;;;;;;21214043;27;20445;-52
2022/04/19 21:45:28;;;;;;;13.15;8.18;;;5.60;98.90;;;;;;21211996;27;20047;-52
2022/04/19 21:55:30;;;;;;;18.10;7.63;;;5.40;99.70;;;;;;21211770;28;20031;-52
2022/04/19 22:05:33;;;;;;;18.02;8.73;;;5.40;99.90;;;;;;21211795;28;20031;-52
2022/04/19 22:15:36;;;;;;;13.80;8.23;;;5.00;99.90;;;;;;21211426;28;20031;-52
2022/04/19 22:25:38;;;;;;;18.33;9.18;;;5.00;99.90;;;;;;21211801;28;20479;-50
2022/04/19 22:35:43;;;;;;;15.80;8.70;;;4.70;99.90;;;;;;21211602;28;20104;-52
2022/04/19 22:45:48;;;;;;;15.20;9.60;;;4.50;99.90;;;;;;21209650;27;20518;-50
2022/04/19 22:55:50;;;;;;;18.35;9.05;;;4.40;99.90;;;;;;21225223;27;20088;-50
2022/04/19 23:05:53;;;;;;;19.38;10.43;;;4.10;99.90;;;;;;21207583;27;20043;-50
2022/04/19 23:15:56;;;;;;;19.48;11.35;;;3.60;99.90;;;;;;21224727;27;20035;-53
2022/04/19 23:36:21;;;;;;;16.13;8.57;;;3.20;99.90;;;;;;20960005;28;20143;-55
2022/04/19 23:46:24;;;;;;;18.85;10.80;;;3.70;99.90;;;;;;20889193;28;20618;-53
2022/04/19 23:56:27;;;;;;;17.67;10.13;;;3.70;99.90;;;;;;20875495;28;20080;-52
